createdAt,value
2022-12-14T00:01:48.685Z,98963.91
2022-12-14T00:04:18.638Z,98963.81
2022-12-14T00:06:46.338Z,98969.69
2022-12-14T00:09:14.030Z,98970.84
2022-12-14T00:11:43.877Z,98975.13
2022-12-14T00:14:12.562Z,98966.13
2022-12-14T00:16:40.230Z,98955.19
2022-12-14T00:19:08.029Z,98952.00
2022-12-14T00:21:37.459Z,98953.22
2022-12-14T00:24:05.782Z,98949.31
2022-12-14T00:26:34.236Z,98948.91
2022-12-14T00:29:03.189Z,98944.00
2022-12-14T00:31:32.120Z,98932.41
2022-12-14T00:34:01.025Z,98935.75
2022-12-14T00:36:31.445Z,98935.97
2022-12-14T00:39:00.802Z,98937.44
2022-12-14T00:41:28.706Z,98934.50
2022-12-14T00:43:56.529Z,98933.69
2022-12-14T00:46:24.163Z,98930.66
2022-12-14T00:48:51.857Z,98932.41
2022-12-14T00:51:19.563Z,98939.31
2022-12-14T00:53:47.274Z,98935.84
2022-12-14T00:56:16.282Z,98931.72
2022-12-14T00:58:43.934Z,98928.94
2022-12-14T01:01:14.916Z,98928.94
2022-12-14T01:03:43.071Z,98920.69
2022-12-14T01:06:15.495Z,98924.41
2022-12-14T01:08:43.141Z,98922.59
2022-12-14T01:11:11.587Z,98922.34
2022-12-14T01:13:41.479Z,98916.59
2022-12-14T01:16:11.684Z,98915.06
2022-12-14T01:18:42.720Z,98909.28
2022-12-14T01:21:12.632Z,98912.56
2022-12-14T01:23:40.559Z,98916.84
2022-12-14T01:26:08.597Z,98909.16
2022-12-14T01:28:36.489Z,98903.50
2022-12-14T01:31:10.384Z,98899.84
2022-12-14T01:33:38.074Z,98902.78
2022-12-14T01:36:09.746Z,98897.97
2022-12-14T01:38:37.886Z,98902.22
2022-12-14T01:41:07.229Z,98899.22
2022-12-14T01:43:48.855Z,98886.91
2022-12-14T01:46:24.937Z,98884.84
2022-12-14T01:48:57.088Z,98877.78
2022-12-14T01:51:27.581Z,98883.75
2022-12-14T01:53:57.095Z,98875.88
2022-12-14T01:56:24.995Z,98868.41
2022-12-14T01:58:52.726Z,98861.41
2022-12-14T02:01:21.836Z,98849.66
2022-12-14T02:03:53.040Z,98838.13
2022-12-14T02:06:27.358Z,98838.94
2022-12-14T02:08:57.254Z,98830.88
2022-12-14T02:11:33.620Z,98821.94
2022-12-14T02:14:01.433Z,98830.91
2022-12-14T02:16:30.647Z,98824.63
2022-12-14T02:18:58.296Z,98830.25
2022-12-14T02:21:37.067Z,98825.03
2022-12-14T02:24:45.451Z,98827.19
2022-12-14T02:27:28.583Z,98829.63
2022-12-14T02:30:07.696Z,98810.41
2022-12-14T02:32:49.284Z,98799.63
2022-12-14T02:35:27.983Z,98791.66
2022-12-14T02:38:06.479Z,98779.78
2022-12-14T02:40:40.815Z,98783.28
2022-12-14T02:43:19.689Z,98776.97
2022-12-14T02:45:57.101Z,98774.97
2022-12-14T02:48:31.594Z,98775.81
2022-12-14T02:51:06.889Z,98780.38
2022-12-14T02:53:41.494Z,98783.78
2022-12-14T02:56:16.156Z,98786.38
2022-12-14T02:58:48.845Z,98786.72
2022-12-14T03:01:23.052Z,98777.50
2022-12-14T03:03:50.824Z,98781.13
2022-12-14T03:06:26.106Z,98764.03
2022-12-14T03:08:57.809Z,98768.78
2022-12-14T03:11:32.535Z,98762.94
2022-12-14T03:14:05.767Z,98766.16
2022-12-14T03:16:41.985Z,98761.34
2022-12-14T03:19:16.525Z,98741.59
2022-12-14T03:21:48.573Z,98738.91
2022-12-14T03:24:21.258Z,98747.19
2022-12-14T03:26:53.852Z,98743.13
2022-12-14T03:29:26.298Z,98735.38
2022-12-14T03:31:58.923Z,98738.97
2022-12-14T03:34:31.410Z,98730.94
2022-12-14T03:37:07.817Z,98733.19
2022-12-14T03:39:37.199Z,98723.34
2022-12-14T03:42:12.489Z,98710.16
2022-12-14T03:44:49.262Z,98701.53
2022-12-14T03:47:32.265Z,98711.81
2022-12-14T03:50:02.729Z,98710.53
2022-12-14T03:52:36.877Z,98704.31
2022-12-14T03:55:18.905Z,98706.47
2022-12-14T03:58:00.444Z,98698.97
2022-12-14T04:00:35.733Z,98702.66
2022-12-14T04:03:11.471Z,98702.03
2022-12-14T04:05:48.712Z,98702.19
2022-12-14T04:08:24.320Z,98699.69
2022-12-14T04:11:14.194Z,98696.91
2022-12-14T04:14:04.206Z,98694.13
2022-12-14T04:16:54.296Z,98696.53
2022-12-14T04:19:28.024Z,98691.44
2022-12-14T04:21:59.892Z,98694.97
2022-12-14T04:24:52.927Z,98688.56
2022-12-14T04:27:27.726Z,98688.38
2022-12-14T04:29:57.267Z,98686.94
2022-12-14T04:32:31.930Z,98681.00
2022-12-14T04:35:07.755Z,98693.22
2022-12-14T04:37:40.260Z,98699.06
2022-12-14T04:40:12.340Z,98691.22
2022-12-14T04:42:46.659Z,98683.47
2022-12-14T04:45:19.714Z,98686.19
2022-12-14T04:47:53.935Z,98695.84
2022-12-14T04:50:26.569Z,98692.78
2022-12-14T04:53:01.172Z,98686.09
2022-12-14T04:55:35.513Z,98697.16
2022-12-14T04:58:11.714Z,98694.97
2022-12-14T05:00:48.687Z,98679.94
2022-12-14T05:03:24.330Z,98689.03
2022-12-14T05:06:04.304Z,98690.16
2022-12-14T05:08:52.378Z,98686.84
2022-12-14T05:14:20.407Z,98693.94
2022-12-14T05:16:49.512Z,98691.03
2022-12-14T05:19:17.583Z,98684.44
2022-12-14T05:21:49.605Z,98686.69
2022-12-14T05:24:18.090Z,98690.50
2022-12-14T05:26:47.323Z,98696.44
2022-12-14T05:29:15.233Z,98689.50
2022-12-14T05:31:43.009Z,98695.25
2022-12-14T05:34:17.270Z,98691.47
2022-12-14T05:36:46.291Z,98689.03
2022-12-14T05:39:14.682Z,98681.47
2022-12-14T05:41:42.595Z,98675.47
2022-12-14T05:44:10.842Z,98680.16
2022-12-14T05:46:38.520Z,98672.84
2022-12-14T05:49:06.210Z,98677.78
2022-12-14T05:51:35.194Z,98653.91
2022-12-14T05:54:05.286Z,98656.50
2022-12-14T05:56:33.198Z,98645.34
2022-12-14T05:59:00.880Z,98641.66
2022-12-14T06:01:28.854Z,98631.00
2022-12-14T06:03:56.628Z,98629.25
2022-12-14T06:06:24.354Z,98622.06
2022-12-14T06:08:51.924Z,98610.31
2022-12-14T06:11:22.598Z,98606.03
2022-12-14T06:13:51.241Z,98610.03
2022-12-14T06:16:20.652Z,98609.59
2022-12-14T06:18:50.353Z,98606.47
2022-12-14T06:21:19.926Z,98598.03
2022-12-14T06:23:50.139Z,98598.84
2022-12-14T06:26:19.276Z,98589.81
2022-12-14T06:28:50.603Z,98584.97
2022-12-14T06:31:21.974Z,98574.59
2022-12-14T06:33:49.871Z,98577.50
2022-12-14T06:36:19.716Z,98575.56
2022-12-14T06:38:50.350Z,98562.84
2022-12-14T06:41:18.234Z,98569.97
2022-12-14T06:43:45.864Z,98575.94
2022-12-14T06:46:21.796Z,98569.69
2022-12-14T06:48:50.964Z,98558.28
2022-12-14T06:51:18.627Z,98553.44
2022-12-14T06:53:46.334Z,98554.00
2022-12-14T06:56:16.054Z,98551.03
2022-12-14T06:58:44.635Z,98547.31
2022-12-14T07:01:14.194Z,98540.91
2022-12-14T07:03:43.466Z,98541.50
2022-12-14T07:06:11.210Z,98533.69
2022-12-14T07:08:39.941Z,98537.50
2022-12-14T07:11:09.879Z,98528.75
2022-12-14T07:13:38.252Z,98528.53
2022-12-14T07:16:07.141Z,98530.53
2022-12-14T07:18:35.555Z,98524.16
2022-12-14T07:21:07.324Z,98518.72
2022-12-14T07:23:38.056Z,98515.47
2022-12-14T07:26:07.931Z,98512.72
2022-12-14T07:28:36.971Z,98509.28
2022-12-14T07:31:06.694Z,98510.44
2022-12-14T07:33:34.816Z,98503.22
2022-12-14T07:36:05.138Z,98509.03
2022-12-14T07:38:33.457Z,98511.72
2022-12-14T07:41:05.734Z,98508.56
2022-12-14T07:43:33.788Z,98500.81
2022-12-14T07:46:03.028Z,98503.63
2022-12-14T07:48:31.524Z,98513.00
2022-12-14T07:51:04.920Z,98513.16
2022-12-14T07:53:32.620Z,98507.03
2022-12-14T07:56:03.182Z,98516.16
2022-12-14T07:58:30.796Z,98518.28
2022-12-14T08:01:09.141Z,98522.06
2022-12-14T08:03:40.232Z,98529.31
2022-12-14T08:06:10.382Z,98535.69
2022-12-14T08:08:38.561Z,98544.53
2022-12-14T08:11:06.806Z,98552.16
2022-12-14T08:13:35.131Z,98559.75
2022-12-14T08:16:03.799Z,98566.31
2022-12-14T08:18:33.045Z,98561.91
2022-12-14T08:21:01.132Z,98564.34
2022-12-14T08:23:30.744Z,98561.91
2022-12-14T08:26:00.104Z,98567.16
2022-12-14T08:28:30.065Z,98569.47
2022-12-14T08:30:57.871Z,98565.19
2022-12-14T08:33:26.388Z,98553.06
2022-12-14T08:35:54.284Z,98562.16
2022-12-14T08:38:21.966Z,98569.59
2022-12-14T08:40:50.854Z,98578.53
2022-12-14T08:43:23.357Z,98587.09
2022-12-14T08:45:55.447Z,98587.19
2022-12-14T08:48:23.205Z,98576.31
2022-12-14T08:50:50.830Z,98579.41
2022-12-14T08:53:18.402Z,98573.13
2022-12-14T08:55:46.373Z,98569.69
2022-12-14T08:58:15.331Z,98560.81
2022-12-14T09:00:43.451Z,98560.31
2022-12-14T09:03:12.199Z,98564.53
2022-12-14T09:05:39.924Z,98555.69
2022-12-14T09:08:07.559Z,98552.44
2022-12-14T09:10:35.142Z,98561.88
2022-12-14T09:13:02.773Z,98562.53
2022-12-14T09:15:31.718Z,98558.41
2022-12-14T09:17:59.380Z,98558.09
2022-12-14T09:20:27.042Z,98561.31
2022-12-14T09:22:54.794Z,98573.53
2022-12-14T09:25:22.772Z,98576.03
2022-12-14T09:27:50.928Z,98579.63
2022-12-14T09:30:24.758Z,98575.72
2022-12-14T09:32:55.966Z,98586.97
2022-12-14T09:35:23.869Z,98600.81
2022-12-14T09:37:52.031Z,98582.38
2022-12-14T09:40:19.964Z,98582.03
2022-12-14T09:42:56.748Z,98575.19
2022-12-14T09:45:31.126Z,98580.91
2022-12-14T09:48:08.612Z,98557.06
2022-12-14T09:50:37.800Z,98550.41
2022-12-14T09:53:08.927Z,98558.47
2022-12-14T09:55:39.878Z,98559.03
2022-12-14T09:58:13.120Z,98560.38
2022-12-14T10:00:51.613Z,98556.91
2022-12-14T10:03:37.335Z,98543.94
2022-12-14T10:06:29.964Z,98555.09
2022-12-14T10:09:04.439Z,98549.50
2022-12-14T10:11:40.311Z,98556.88
2022-12-14T10:14:20.308Z,98550.31
2022-12-14T10:16:59.578Z,98551.78
2022-12-14T10:19:38.156Z,98549.47
2022-12-14T10:22:12.086Z,98545.56
2022-12-14T10:24:44.259Z,98548.03
2022-12-14T10:27:18.999Z,98534.34
2022-12-14T10:29:52.493Z,98543.41
2022-12-14T10:32:22.867Z,98542.41
2022-12-14T10:34:53.722Z,98539.97
2022-12-14T10:37:27.072Z,98535.59
2022-12-14T10:40:12.424Z,98531.88
2022-12-14T10:42:53.407Z,98539.63
2022-12-14T10:45:45.441Z,98530.97
2022-12-14T10:48:37.519Z,98528.97
2022-12-14T10:51:08.958Z,98528.28
2022-12-14T10:53:45.645Z,98528.31
2022-12-14T10:56:19.010Z,98520.91
2022-12-14T10:59:20.602Z,98520.09
2022-12-14T11:01:51.008Z,98531.28
2022-12-14T11:04:30.039Z,98524.53
2022-12-14T11:07:01.254Z,98519.94
2022-12-14T11:09:29.538Z,98525.03
2022-12-14T11:12:00.540Z,98519.59
2022-12-14T11:14:28.573Z,98512.69
2022-12-14T11:16:56.584Z,98525.19
2022-12-14T11:19:26.415Z,98518.13
2022-12-14T11:22:18.677Z,98517.94
2022-12-14T11:24:50.011Z,98526.34
2022-12-14T11:27:20.987Z,98520.56
2022-12-14T11:29:51.908Z,98517.09
2022-12-14T11:32:23.886Z,98515.16
2022-12-14T11:35:00.006Z,98513.50
2022-12-14T11:37:31.494Z,98522.72
2022-12-14T11:40:01.605Z,98518.94
2022-12-14T11:42:29.742Z,98515.81
2022-12-14T11:45:28.786Z,98507.59
2022-12-14T11:48:12.352Z,98508.75
2022-12-14T11:50:40.225Z,98499.34
2022-12-14T11:53:13.419Z,98505.44
2022-12-14T11:55:46.797Z,98502.47
2022-12-14T11:58:20.811Z,98504.44
2022-12-14T12:00:51.947Z,98512.03
2022-12-14T12:03:25.168Z,98507.28
2022-12-14T12:05:54.823Z,98515.31
2022-12-14T12:08:27.945Z,98508.41
2022-12-14T12:11:01.939Z,98510.88
2022-12-14T12:13:33.023Z,98509.91
2022-12-14T12:16:04.281Z,98513.50
2022-12-14T12:18:42.939Z,98508.56
2022-12-14T12:21:17.972Z,98506.88
2022-12-14T12:23:54.904Z,98504.59
2022-12-14T12:26:27.812Z,98506.53
2022-12-14T12:28:58.219Z,98503.91
2022-12-14T12:31:33.053Z,98513.16
2022-12-14T12:34:05.280Z,98519.22
2022-12-14T12:36:33.841Z,98513.28
2022-12-14T12:39:06.433Z,98515.44
2022-12-14T12:41:53.125Z,98525.84
2022-12-14T12:44:35.819Z,98529.81
2022-12-14T12:47:26.075Z,98530.94
2022-12-14T12:49:59.420Z,98523.88
2022-12-14T12:52:32.407Z,98523.53
2022-12-14T12:55:04.714Z,98520.59
2022-12-14T12:57:45.996Z,98517.28
2022-12-14T13:00:18.246Z,98523.53
2022-12-14T13:02:50.275Z,98526.16
2022-12-14T13:08:20.614Z,98523.03
2022-12-14T13:13:45.070Z,98532.72
2022-12-14T13:16:21.569Z,98539.97
2022-12-14T13:19:04.932Z,98533.34
2022-12-14T13:21:47.967Z,98536.97
2022-12-14T13:24:20.031Z,98526.50
2022-12-14T13:27:12.275Z,98539.81
2022-12-14T13:29:56.729Z,98545.59
2022-12-14T13:32:43.843Z,98542.63
2022-12-14T13:35:26.811Z,98536.53
2022-12-14T13:38:32.955Z,98530.78
2022-12-14T13:41:27.327Z,98535.53
2022-12-14T13:44:11.695Z,98545.25
2022-12-14T13:46:39.787Z,98547.34
2022-12-14T13:49:17.818Z,98551.25
2022-12-14T13:51:50.077Z,98556.72
2022-12-14T13:54:27.532Z,98561.31
2022-12-14T13:57:04.017Z,98556.06
2022-12-14T13:59:36.816Z,98564.81
2022-12-14T14:02:05.695Z,98558.59
2022-12-14T14:04:35.499Z,98550.38
2022-12-14T14:07:37.350Z,98547.25
2022-12-14T14:10:07.449Z,98544.47
2022-12-14T14:12:41.609Z,98548.09
2022-12-14T14:18:53.120Z,98558.47
2022-12-14T14:21:58.727Z,98551.38
2022-12-14T14:24:27.531Z,98549.72
2022-12-14T14:27:01.207Z,98554.97
2022-12-14T14:29:30.874Z,98560.09
2022-12-14T14:32:01.604Z,98561.09
2022-12-14T14:34:38.774Z,98567.34
2022-12-14T14:37:32.713Z,98561.91
2022-12-14T14:40:26.284Z,98555.47
2022-12-14T14:43:05.678Z,98561.09
2022-12-14T14:45:40.650Z,98563.72
2022-12-14T14:48:33.573Z,98567.50
2022-12-14T14:51:09.417Z,98573.41
2022-12-14T14:53:38.224Z,98577.97
2022-12-14T14:56:33.608Z,98576.09
2022-12-14T14:59:41.358Z,98582.69
2022-12-14T15:02:30.860Z,98574.78
2022-12-14T15:05:17.935Z,98585.59
2022-12-14T15:07:50.027Z,98585.34
2022-12-14T15:10:27.722Z,98579.84
2022-12-14T15:12:58.414Z,98593.03
2022-12-14T15:15:33.932Z,98598.09
2022-12-14T15:18:16.104Z,98599.72
2022-12-14T15:20:54.583Z,98596.59
2022-12-14T15:23:23.791Z,98624.84
2022-12-14T15:26:01.216Z,98628.34
2022-12-14T15:28:29.315Z,98635.56
2022-12-14T15:30:58.414Z,98637.31
2022-12-14T15:33:29.861Z,98631.34
2022-12-14T15:36:06.933Z,98647.50
2022-12-14T15:38:36.632Z,98656.03
2022-12-14T15:41:07.505Z,98663.09
2022-12-14T15:43:35.193Z,98651.28
2022-12-14T15:46:03.659Z,98651.09
2022-12-14T15:48:34.874Z,98647.09
2022-12-14T15:51:07.091Z,98655.63
2022-12-14T15:53:38.294Z,98651.13
2022-12-14T15:56:19.022Z,98655.69
2022-12-14T15:58:47.158Z,98666.03
2022-12-14T16:01:20.935Z,98666.22
2022-12-14T16:03:51.961Z,98680.91
2022-12-14T16:06:23.360Z,98688.19
2022-12-14T16:08:56.095Z,98694.00
2022-12-14T16:11:29.151Z,98695.50
2022-12-14T16:13:59.226Z,98701.91
2022-12-14T16:16:27.201Z,98703.53
2022-12-14T16:19:08.642Z,98700.28
2022-12-14T16:21:47.523Z,98698.63
2022-12-14T16:24:23.907Z,98691.41
2022-12-14T16:27:00.155Z,98699.47
2022-12-14T16:29:29.533Z,98700.91
2022-12-14T16:32:01.949Z,98694.25
2022-12-14T16:34:30.166Z,98689.56
2022-12-14T16:37:31.712Z,98700.91
2022-12-14T16:39:54.074Z,98706.03
2022-12-14T16:42:23.675Z,98712.66
2022-12-14T16:44:54.077Z,98708.38
2022-12-14T16:47:45.926Z,98710.81
2022-12-14T16:51:38.405Z,98711.78
2022-12-14T16:54:32.386Z,98719.22
2022-12-14T16:57:04.114Z,98707.81
2022-12-14T16:59:49.339Z,98710.47
2022-12-14T17:02:29.013Z,98712.63
2022-12-14T17:04:58.839Z,98716.56
2022-12-14T17:07:29.140Z,98726.47
2022-12-14T17:10:01.204Z,98713.97
2022-12-14T17:12:28.979Z,98716.88
2022-12-14T17:14:57.097Z,98724.47
2022-12-14T17:17:30.023Z,98742.69
2022-12-14T17:19:57.826Z,98745.38
2022-12-14T17:22:27.911Z,98742.09
2022-12-14T17:24:55.879Z,98747.22
2022-12-14T17:27:26.920Z,98756.16
2022-12-14T17:29:57.125Z,98761.41
2022-12-14T17:32:29.513Z,98762.09
2022-12-14T17:34:57.628Z,98765.41
2022-12-14T17:37:31.008Z,98760.78
2022-12-14T17:40:02.022Z,98752.19
2022-12-14T17:42:32.946Z,98746.66
2022-12-14T17:45:01.582Z,98750.69
2022-12-14T17:47:29.223Z,98754.13
2022-12-14T17:49:58.986Z,98761.25
2022-12-14T17:52:30.041Z,98761.63
2022-12-14T17:54:59.042Z,98764.97
2022-12-14T17:57:27.676Z,98770.38
2022-12-14T18:00:10.790Z,98767.31
2022-12-14T18:02:39.867Z,98775.41
2022-12-14T18:05:15.185Z,98776.56
2022-12-14T18:07:42.792Z,98780.47
2022-12-14T18:10:14.363Z,98783.25
2022-12-14T18:12:42.411Z,98784.97
2022-12-14T18:15:17.809Z,98773.13
2022-12-14T18:17:46.100Z,98766.00
2022-12-14T18:20:19.171Z,98775.47
2022-12-14T18:22:51.007Z,98780.44
2022-12-14T18:25:28.147Z,98781.38
2022-12-14T18:27:55.829Z,98776.59
2022-12-14T18:30:24.827Z,98773.91
2022-12-14T18:32:52.923Z,98782.97
2022-12-14T18:35:22.333Z,98784.38
2022-12-14T18:37:50.682Z,98789.50
2022-12-14T18:40:21.198Z,98792.66
2022-12-14T18:42:49.144Z,98789.66
2022-12-14T18:45:26.274Z,98789.59
2022-12-14T18:47:56.034Z,98792.06
2022-12-14T18:50:24.802Z,98806.13
2022-12-14T18:52:55.654Z,98801.84
2022-12-14T18:55:26.046Z,98809.66
2022-12-14T18:57:56.283Z,98815.94
2022-12-14T19:00:26.635Z,98820.69
2022-12-14T19:02:58.472Z,98816.59
2022-12-14T19:05:26.885Z,98813.22
2022-12-14T19:07:56.697Z,98819.03
2022-12-14T19:10:26.801Z,98819.34
2022-12-14T19:12:55.016Z,98819.34
2022-12-14T19:15:24.924Z,98823.63
2022-12-14T19:17:53.078Z,98831.34
2022-12-14T19:20:22.986Z,98828.28
2022-12-14T19:22:51.014Z,98826.84
2022-12-14T19:25:21.544Z,98830.69
2022-12-14T19:30:40.148Z,98830.66
2022-12-14T19:33:07.907Z,98845.28
2022-12-14T19:35:40.900Z,98844.69
2022-12-14T19:38:12.675Z,98847.91
2022-12-14T19:40:40.540Z,98844.25
2022-12-14T19:43:08.219Z,98846.63
2022-12-14T19:45:35.929Z,98854.28
2022-12-14T19:48:03.764Z,98848.88
2022-12-14T19:50:31.425Z,98856.22
2022-12-14T19:53:00.471Z,98853.06
2022-12-14T19:55:28.117Z,98857.44
2022-12-14T19:57:57.263Z,98853.69
2022-12-14T20:00:25.095Z,98867.53
2022-12-14T20:02:54.006Z,98868.72
2022-12-14T20:05:22.341Z,98869.41
2022-12-14T20:07:50.041Z,98868.56
2022-12-14T20:10:20.589Z,98870.63
2022-12-14T20:12:48.548Z,98867.84
2022-12-14T20:15:16.407Z,98867.63
2022-12-14T20:17:44.078Z,98869.41
2022-12-14T20:20:12.369Z,98866.66
2022-12-14T20:22:40.160Z,98873.50
2022-12-14T20:25:09.807Z,98871.56
2022-12-14T20:27:40.962Z,98872.25
2022-12-14T20:56:37.082Z,98896.00
2022-12-14T20:59:05.571Z,98897.75
2022-12-14T21:01:33.364Z,98896.94
2022-12-14T21:04:02.574Z,98893.63
2022-12-14T21:06:30.496Z,98897.69
2022-12-14T21:09:06.172Z,98887.69
2022-12-14T21:11:54.208Z,98881.47
2022-12-14T21:14:23.534Z,98885.50
2022-12-14T21:16:51.385Z,98883.75
2022-12-14T21:19:19.519Z,98901.00
